(Default Airport = EGHI - Southampton International)

METAR = EGHI 252150Z 00000KT 9999 MIFG NSC 05/04 Q1035

STATION........ EGHI
OBSERVED....... Tue Sep 25, 22:50 BST
NOW............ Wed Sep 26, 02:47 BST
AGE............ 3:57 hr ago
WIND........... calm
VISIBILITY..... 16 miles
CONDITIONS..... shallow fog


    Get Weather Info from Airport: